createdAt,value
2022-09-18T00:01:35.410Z,2.03
2022-09-18T00:04:05.625Z,1.85
2022-09-18T00:06:36.282Z,2.58
2022-09-18T00:09:07.090Z,1.90
2022-09-18T00:11:47.231Z,2.80
2022-09-18T00:14:19.354Z,2.15
2022-09-18T00:16:47.358Z,2.53
2022-09-18T00:19:16.451Z,3.33
2022-09-18T00:21:47.580Z,1.63
2022-09-18T00:24:17.951Z,1.88
2022-09-18T00:26:47.083Z,2.35
2022-09-18T00:29:16.239Z,1.85
2022-09-18T00:31:44.665Z,1.85
2022-09-18T00:34:14.641Z,2.47
2022-09-18T00:36:42.608Z,1.38
2022-09-18T00:39:11.258Z,2.63
2022-09-18T00:41:43.191Z,2.38
2022-09-18T00:44:44.544Z,2.10
2022-09-18T00:47:12.117Z,2.05
2022-09-18T00:49:46.124Z,1.17
2022-09-18T00:52:15.682Z,2.00
2022-09-18T00:54:48.614Z,1.83
2022-09-18T00:57:23.925Z,2.83
2022-09-18T00:59:53.059Z,1.83
2022-09-18T01:02:22.096Z,2.15
2022-09-18T01:04:50.829Z,1.25
2022-09-18T01:07:35.815Z,2.08
2022-09-18T01:10:18.411Z,2.22
2022-09-18T01:13:00.459Z,1.67
2022-09-18T01:15:37.685Z,3.13
2022-09-18T01:18:31.759Z,3.63
2022-09-18T01:20:59.305Z,1.77
2022-09-18T01:23:27.122Z,1.60
2022-09-18T01:26:24.296Z,1.63
2022-09-18T01:29:17.337Z,3.73
2022-09-18T01:31:59.048Z,3.55
2022-09-18T01:34:59.582Z,2.60
2022-09-18T01:37:56.402Z,1.63
2022-09-18T01:40:33.999Z,2.00
2022-09-18T01:43:08.952Z,4.25
2022-09-18T01:45:43.854Z,2.25
2022-09-18T01:50:54.349Z,2.55
2022-09-18T01:53:33.353Z,3.53
2022-09-18T01:56:11.229Z,2.38
2022-09-18T01:58:39.539Z,2.00
2022-09-18T02:01:13.742Z,2.67
2022-09-18T02:03:57.898Z,2.45
2022-09-18T02:06:42.086Z,2.25
2022-09-18T02:09:11.897Z,1.90
2022-09-18T02:11:46.642Z,2.40
2022-09-18T02:14:25.912Z,2.25
2022-09-18T02:17:23.416Z,4.00
2022-09-18T02:19:57.906Z,3.03
2022-09-18T02:22:30.605Z,2.63
2022-09-18T02:25:02.934Z,2.53
2022-09-18T02:27:34.559Z,2.50
2022-09-18T02:30:05.346Z,2.03
2022-09-18T02:32:36.725Z,2.22
2022-09-18T02:35:09.013Z,2.63
2022-09-18T02:38:03.626Z,2.45
2022-09-18T02:40:55.529Z,4.40
2022-09-18T02:43:34.320Z,9.25
2022-09-18T02:46:27.716Z,7.65
2022-09-18T02:49:30.815Z,5.22
2022-09-18T02:52:06.478Z,3.60
2022-09-18T02:54:40.700Z,6.45
2022-09-18T02:57:19.013Z,5.18
2022-09-18T02:59:51.667Z,4.85
2022-09-18T03:02:23.546Z,4.63
2022-09-18T03:04:52.218Z,2.92
2022-09-18T03:07:48.875Z,3.00
2022-09-18T03:10:16.896Z,2.80
2022-09-18T03:12:44.644Z,1.73
2022-09-18T03:15:12.269Z,2.20
2022-09-18T03:17:39.785Z,1.80
2022-09-18T03:20:08.463Z,2.17
2022-09-18T03:22:36.476Z,1.67
2022-09-18T03:25:04.616Z,2.65
2022-09-18T03:27:34.398Z,6.88
2022-09-18T03:30:02.369Z,6.00
2022-09-18T03:32:32.521Z,4.65
2022-09-18T03:35:00.156Z,3.47
2022-09-18T03:37:28.896Z,2.58
2022-09-18T03:40:00.590Z,3.45
2022-09-18T03:42:28.210Z,1.95
2022-09-18T03:44:57.605Z,1.50
2022-09-18T03:47:30.896Z,1.67
2022-09-18T03:50:02.017Z,1.50
2022-09-18T03:52:34.091Z,2.15
2022-09-18T03:58:04.924Z,1.40
2022-09-18T04:00:58.889Z,2.00
2022-09-18T04:03:34.704Z,1.95
2022-09-18T04:06:22.657Z,1.85
2022-09-18T04:09:07.797Z,1.15
2022-09-18T04:11:43.994Z,2.45
2022-09-18T04:14:11.957Z,1.58
2022-09-18T04:16:40.159Z,2.03
2022-09-18T04:19:09.393Z,2.67
2022-09-18T04:21:39.191Z,3.45
2022-09-18T04:24:06.890Z,1.80
2022-09-18T04:26:35.380Z,1.25
2022-09-18T04:29:03.703Z,1.75
2022-09-18T04:31:32.115Z,2.63
2022-09-18T04:34:04.620Z,1.85
2022-09-18T04:36:33.852Z,2.08
2022-09-18T04:39:01.592Z,2.35
2022-09-18T04:41:29.458Z,2.10
2022-09-18T04:43:59.189Z,2.22
2022-09-18T04:46:27.056Z,2.83
2022-09-18T04:48:55.031Z,3.20
2022-09-18T04:51:25.838Z,2.22
2022-09-18T04:53:53.552Z,2.97
2022-09-18T04:56:21.519Z,2.17
2022-09-18T04:58:51.607Z,1.52
2022-09-18T05:01:19.790Z,2.13
2022-09-18T05:03:47.365Z,2.03
2022-09-18T05:06:28.402Z,2.28
2022-09-18T05:08:56.002Z,1.33
2022-09-18T05:11:25.840Z,1.70
2022-09-18T05:13:57.068Z,2.47
2022-09-18T05:16:27.705Z,3.63
2022-09-18T05:19:18.243Z,1.60
2022-09-18T05:21:51.776Z,2.40
2022-09-18T05:24:20.775Z,1.98
2022-09-18T05:26:50.261Z,2.15
2022-09-18T05:29:20.723Z,2.00
2022-09-18T05:31:49.905Z,2.63
2022-09-18T05:34:17.449Z,3.85
2022-09-18T05:36:46.591Z,2.42
2022-09-18T05:39:17.401Z,1.15
2022-09-18T05:41:51.314Z,4.55
2022-09-18T05:44:20.162Z,1.17
2022-09-18T05:46:49.637Z,1.60
2022-09-18T05:49:17.840Z,1.25
2022-09-18T05:51:46.531Z,3.45
2022-09-18T05:54:15.795Z,2.58
2022-09-18T05:56:50.403Z,1.63
2022-09-18T05:59:18.170Z,1.35
2022-09-18T06:01:48.556Z,1.20
2022-09-18T06:04:24.467Z,1.87
2022-09-18T06:06:56.956Z,2.50
2022-09-18T06:09:25.863Z,1.27
2022-09-18T06:11:53.692Z,1.17
2022-09-18T06:14:22.433Z,1.35
2022-09-18T06:16:50.693Z,1.23
2022-09-18T06:19:18.512Z,1.83
2022-09-18T06:21:48.794Z,0.70
2022-09-18T06:24:18.984Z,1.50
2022-09-18T06:27:09.824Z,2.42
2022-09-18T06:29:39.243Z,2.08
2022-09-18T06:32:12.772Z,1.20
2022-09-18T06:34:41.488Z,2.15
2022-09-18T06:37:13.533Z,3.58
2022-09-18T06:39:44.654Z,2.30
2022-09-18T06:42:26.806Z,2.38
2022-09-18T06:45:15.850Z,3.22
2022-09-18T06:47:45.354Z,3.10
2022-09-18T06:50:13.590Z,4.95
2022-09-18T06:52:41.255Z,3.45
2022-09-18T06:55:09.441Z,1.40
2022-09-18T06:57:37.200Z,1.13
2022-09-18T07:00:05.831Z,2.95
2022-09-18T07:02:38.269Z,3.53
2022-09-18T07:05:38.680Z,0.75
2022-09-18T07:08:06.494Z,1.20
2022-09-18T07:10:36.976Z,1.88
2022-09-18T07:13:05.143Z,2.45
2022-09-18T07:15:40.368Z,3.53
2022-09-18T07:18:09.356Z,3.63
2022-09-18T07:20:37.015Z,4.10
2022-09-18T07:23:04.750Z,3.60
2022-09-18T07:25:42.495Z,2.95
2022-09-18T07:28:11.238Z,4.63
2022-09-18T07:30:46.546Z,1.40
2022-09-18T07:33:15.475Z,2.53
2022-09-18T07:35:48.436Z,3.80
2022-09-18T07:38:18.246Z,5.57
2022-09-18T07:40:55.053Z,8.02
2022-09-18T07:43:30.639Z,5.53
2022-09-18T07:46:00.743Z,6.03
2022-09-18T07:48:31.121Z,2.65
2022-09-18T07:51:09.809Z,3.88
2022-09-18T07:53:41.334Z,3.67
2022-09-18T07:56:11.446Z,2.13
2022-09-18T07:58:40.387Z,2.42
2022-09-18T08:01:15.627Z,2.28
2022-09-18T08:03:49.429Z,1.08
2022-09-18T08:06:17.889Z,2.00
2022-09-18T08:09:08.125Z,3.28
2022-09-18T08:11:58.744Z,1.50
2022-09-18T08:14:51.684Z,1.63
2022-09-18T08:17:26.287Z,3.70
2022-09-18T08:20:04.557Z,4.28
2022-09-18T08:22:46.943Z,4.75
2022-09-18T08:25:15.194Z,1.80
2022-09-18T08:27:46.702Z,5.47
2022-09-18T08:30:16.908Z,3.65
2022-09-18T08:32:46.919Z,3.20
2022-09-18T08:35:14.618Z,2.90
2022-09-18T08:37:48.989Z,3.47
2022-09-18T08:40:50.646Z,4.57
2022-09-18T08:43:28.059Z,4.32
2022-09-18T08:46:12.657Z,4.03
2022-09-18T08:51:26.247Z,3.75
2022-09-18T08:54:01.538Z,3.08
2022-09-18T08:57:05.590Z,4.07
2022-09-18T08:59:53.951Z,10.65
2022-09-18T09:02:27.815Z,14.15
2022-09-18T09:05:01.774Z,11.20
2022-09-18T09:07:40.573Z,1.98
2022-09-18T09:10:30.087Z,4.18
2022-09-18T09:13:28.526Z,4.93
2022-09-18T09:16:14.731Z,6.22
2022-09-18T09:19:27.674Z,2.80
2022-09-18T09:22:14.050Z,5.20
2022-09-18T09:24:48.209Z,4.82
2022-09-18T09:27:53.434Z,3.03
2022-09-18T09:31:03.476Z,3.97
2022-09-18T09:34:01.781Z,8.25
2022-09-18T09:36:50.694Z,3.13
2022-09-18T09:39:42.216Z,3.70
2022-09-18T09:42:25.898Z,2.72
2022-09-18T09:45:00.939Z,4.55
2022-09-18T09:47:59.618Z,5.07
2022-09-18T09:50:38.339Z,5.60
2022-09-18T09:53:11.818Z,3.35
2022-09-18T09:55:47.378Z,5.10
2022-09-18T09:58:38.436Z,4.20
2022-09-18T10:01:13.606Z,3.92
2022-09-18T10:04:07.098Z,6.00
2022-09-18T10:07:01.997Z,5.50
2022-09-18T10:09:47.199Z,5.13
2022-09-18T10:12:24.016Z,5.88
2022-09-18T10:15:01.515Z,8.23
2022-09-18T10:17:37.086Z,7.00
2022-09-18T10:20:06.968Z,5.32
2022-09-18T10:22:36.023Z,3.53
2022-09-18T10:25:33.685Z,3.20
2022-09-18T10:28:02.230Z,4.53
2022-09-18T10:30:30.104Z,4.93
2022-09-18T10:32:58.288Z,7.72
2022-09-18T10:35:38.636Z,6.10
2022-09-18T10:38:27.121Z,4.10
2022-09-18T10:40:54.855Z,6.70
2022-09-18T10:43:23.477Z,4.32
2022-09-18T10:45:56.403Z,4.22
2022-09-18T10:48:30.039Z,6.15
2022-09-18T10:51:00.960Z,4.75
2022-09-18T10:53:42.662Z,4.38
2022-09-18T10:56:20.621Z,5.72
2022-09-18T10:58:51.773Z,3.30
2022-09-18T11:01:20.425Z,2.20
2022-09-18T11:04:04.433Z,2.70
2022-09-18T11:06:38.059Z,2.22
2022-09-18T11:09:20.537Z,5.07
2022-09-18T11:11:51.631Z,2.33
2022-09-18T11:14:38.519Z,2.78
2022-09-18T11:17:34.340Z,2.78
2022-09-18T11:20:06.798Z,2.40
2022-09-18T11:23:14.015Z,2.60
2022-09-18T11:25:42.243Z,4.22
2022-09-18T11:28:28.809Z,2.65
2022-09-18T11:31:20.153Z,2.58
2022-09-18T11:33:57.105Z,2.25
2022-09-18T11:36:33.709Z,2.03
2022-09-18T11:39:15.835Z,4.53
2022-09-18T11:41:48.950Z,4.05
2022-09-18T11:44:33.528Z,4.13
2022-09-18T11:47:20.758Z,3.83
2022-09-18T11:50:02.067Z,3.10
2022-09-18T11:52:38.654Z,2.63
2022-09-18T11:55:36.824Z,2.50
2022-09-18T11:58:31.533Z,4.38
2022-09-18T12:01:12.665Z,3.42
2022-09-18T12:03:49.979Z,6.55
2022-09-18T12:06:35.607Z,3.38
2022-09-18T12:09:42.498Z,2.92
2022-09-18T12:12:13.002Z,5.45
2022-09-18T12:14:57.287Z,3.40
2022-09-18T12:17:43.933Z,2.53
2022-09-18T12:20:23.553Z,3.25
2022-09-18T12:22:56.719Z,2.67
2022-09-18T12:25:45.529Z,3.50
2022-09-18T12:28:22.164Z,4.82
2022-09-18T12:31:24.475Z,2.88
2022-09-18T12:34:01.963Z,3.70
2022-09-18T12:36:45.316Z,3.67
2022-09-18T12:39:29.105Z,3.20
2022-09-18T12:42:04.756Z,2.95
2022-09-18T12:44:57.532Z,3.10
2022-09-18T12:47:41.259Z,4.55
2022-09-18T12:50:11.946Z,2.47
2022-09-18T12:53:09.041Z,4.40
2022-09-18T12:56:08.561Z,9.07
2022-09-18T12:59:07.504Z,4.65
2022-09-18T13:01:46.276Z,3.70
2022-09-18T13:04:29.362Z,3.28
2022-09-18T13:07:31.998Z,3.38
2022-09-18T13:10:14.590Z,3.83
2022-09-18T13:12:45.998Z,3.83
2022-09-18T13:15:21.962Z,3.35
2022-09-18T13:18:04.356Z,4.75
2022-09-18T13:20:36.520Z,3.63
2022-09-18T13:23:06.092Z,3.95
2022-09-18T13:25:38.233Z,3.55
2022-09-18T13:28:15.459Z,4.25
2022-09-18T13:30:43.678Z,3.38
2022-09-18T13:33:31.577Z,2.95
2022-09-18T13:35:59.429Z,2.83
2022-09-18T13:38:29.147Z,2.90
2022-09-18T13:41:09.312Z,4.07
2022-09-18T13:43:43.948Z,4.85
2022-09-18T13:46:40.194Z,3.08
2022-09-18T13:49:20.050Z,2.90
2022-09-18T13:51:47.842Z,2.15
2022-09-18T13:54:33.657Z,2.22
2022-09-18T13:57:10.978Z,3.65
2022-09-18T13:59:49.311Z,3.55
2022-09-18T14:02:40.089Z,4.60
2022-09-18T14:05:08.742Z,5.35
2022-09-18T14:07:36.267Z,3.20
2022-09-18T14:10:20.771Z,4.57
2022-09-18T14:13:07.224Z,2.83
2022-09-18T14:15:35.320Z,5.53
2022-09-18T14:18:15.488Z,3.22
2022-09-18T14:20:56.327Z,2.80
2022-09-18T14:23:36.434Z,3.42
2022-09-18T14:26:32.451Z,2.80
2022-09-18T14:29:15.223Z,3.78
2022-09-18T14:31:52.097Z,3.65
2022-09-18T14:34:40.895Z,3.63
2022-09-18T14:37:25.884Z,4.07
2022-09-18T14:39:55.515Z,6.85
2022-09-18T14:42:33.412Z,6.15
2022-09-18T14:45:31.585Z,3.65
2022-09-18T14:47:59.613Z,3.53
2022-09-18T14:50:37.734Z,4.10
2022-09-18T14:53:24.684Z,2.45
2022-09-18T14:56:07.329Z,2.97
2022-09-18T14:58:38.220Z,1.58
2022-09-18T15:01:08.628Z,4.93
2022-09-18T15:03:40.218Z,4.78
2022-09-18T15:06:24.406Z,4.47
2022-09-18T15:08:54.999Z,4.03
2022-09-18T15:11:34.533Z,3.70
2022-09-18T15:14:27.370Z,5.15
2022-09-18T15:17:00.666Z,3.53
2022-09-18T15:19:30.219Z,3.13
2022-09-18T15:22:02.300Z,4.30
2022-09-18T15:24:31.646Z,2.05
2022-09-18T15:27:01.712Z,5.00
2022-09-18T15:29:45.630Z,3.65
2022-09-18T15:32:26.484Z,4.78
2022-09-18T15:34:55.422Z,3.42
2022-09-18T15:37:26.010Z,4.55
2022-09-18T15:40:06.886Z,3.85
2022-09-18T15:42:51.363Z,6.85
2022-09-18T15:45:22.150Z,2.50
2022-09-18T15:47:50.452Z,3.72
2022-09-18T15:50:18.902Z,3.05
2022-09-18T15:52:54.060Z,4.03
2022-09-18T15:55:24.618Z,4.57
2022-09-18T15:57:58.836Z,4.53
2022-09-18T16:00:31.384Z,3.47
2022-09-18T16:03:06.925Z,3.45
2022-09-18T16:05:38.044Z,3.92
2022-09-18T16:08:28.972Z,2.42
2022-09-18T16:10:59.628Z,6.60
2022-09-18T16:13:31.653Z,5.50
2022-09-18T16:16:08.681Z,4.18
2022-09-18T16:19:07.358Z,2.33
2022-09-18T16:21:42.004Z,4.47
2022-09-18T16:24:30.219Z,2.67
2022-09-18T16:27:08.042Z,3.70
2022-09-18T16:29:35.757Z,3.17
2022-09-18T16:32:03.389Z,2.75
2022-09-18T16:34:31.037Z,4.07
2022-09-18T16:36:58.679Z,3.90
2022-09-18T16:39:27.187Z,2.22
2022-09-18T16:41:54.872Z,3.45
2022-09-18T16:44:22.748Z,4.43
2022-09-18T16:47:00.123Z,5.10
2022-09-18T16:49:32.726Z,5.03
2022-09-18T16:52:00.377Z,6.35
2022-09-18T16:54:28.100Z,5.93
2022-09-18T16:57:00.335Z,7.05
2022-09-18T16:59:30.179Z,10.05
2022-09-18T17:02:04.768Z,6.47
2022-09-18T17:04:34.065Z,5.53
2022-09-18T17:07:02.021Z,3.97
2022-09-18T17:09:30.331Z,11.57
2022-09-18T17:11:58.746Z,3.80
2022-09-18T17:14:26.754Z,3.97
2022-09-18T17:16:54.486Z,6.35
2022-09-18T17:19:22.359Z,3.15
2022-09-18T17:21:50.325Z,6.00
2022-09-18T17:24:18.053Z,3.83
2022-09-18T17:26:45.625Z,6.22
2022-09-18T17:29:17.329Z,5.18
2022-09-18T17:31:45.286Z,4.70
2022-09-18T17:34:13.109Z,5.18
2022-09-18T17:36:40.975Z,3.00
2022-09-18T17:39:11.961Z,5.10
2022-09-18T17:41:39.659Z,4.03
2022-09-18T17:44:07.399Z,6.15
2022-09-18T17:46:35.250Z,6.38
2022-09-18T17:49:03.054Z,5.97
2022-09-18T17:51:31.228Z,6.68
2022-09-18T17:54:02.891Z,6.38
2022-09-18T17:56:31.782Z,5.93
2022-09-18T17:59:02.373Z,6.43
2022-09-18T18:01:31.651Z,4.70
2022-09-18T18:04:00.231Z,5.82
2022-09-18T18:06:28.102Z,5.32
2022-09-18T18:08:56.459Z,8.85
2022-09-18T18:11:28.142Z,10.10
2022-09-18T18:13:56.502Z,23.98
2022-09-18T18:16:27.525Z,26.02
2022-09-18T18:18:57.733Z,15.82
2022-09-18T18:21:26.634Z,11.57
2022-09-18T18:23:56.807Z,9.60
2022-09-18T18:26:24.998Z,6.65
2022-09-18T18:28:52.676Z,5.28
2022-09-18T18:31:21.061Z,6.47
2022-09-18T18:33:48.823Z,7.05
2022-09-18T18:36:17.924Z,9.15
2022-09-18T18:38:48.413Z,8.90
2022-09-18T18:41:17.563Z,7.90
2022-09-18T18:43:45.688Z,6.20
2022-09-18T18:46:15.595Z,12.07
2022-09-18T18:48:44.173Z,12.88
2022-09-18T18:51:14.171Z,10.25
2022-09-18T18:53:43.565Z,8.45
2022-09-18T18:56:15.089Z,11.38
2022-09-18T18:58:47.319Z,6.85
2022-09-18T19:01:17.671Z,7.18
2022-09-18T19:03:55.484Z,4.47
2022-09-18T19:06:24.830Z,11.35
2022-09-18T19:08:57.284Z,28.85
2022-09-18T19:11:25.493Z,14.35
2022-09-18T19:13:56.894Z,10.70
2022-09-18T19:16:26.140Z,7.85
2022-09-18T19:19:01.344Z,6.75
2022-09-18T19:21:29.197Z,5.13
2022-09-18T19:23:59.723Z,8.35
2022-09-18T19:26:29.457Z,7.60
2022-09-18T19:28:59.628Z,4.35
2022-09-18T19:31:29.189Z,7.55
2022-09-18T19:33:58.059Z,4.70
2022-09-18T19:36:28.717Z,3.42
2022-09-18T19:38:58.997Z,7.22
2022-09-18T19:41:39.093Z,4.72
2022-09-18T19:44:42.292Z,4.72
2022-09-18T19:47:32.112Z,5.32
2022-09-18T19:50:02.696Z,8.00
2022-09-18T19:52:30.487Z,20.25
2022-09-18T19:54:59.028Z,19.58
2022-09-18T19:57:28.769Z,10.35
2022-09-18T19:59:57.546Z,8.93
2022-09-18T20:02:25.581Z,5.85
2022-09-18T20:04:53.431Z,5.43
2022-09-18T20:07:21.133Z,6.10
2022-09-18T20:09:48.666Z,5.65
2022-09-18T20:12:16.244Z,5.47
2022-09-18T20:14:44.080Z,6.60
2022-09-18T20:17:12.216Z,6.20
2022-09-18T20:19:39.927Z,9.90
2022-09-18T20:22:07.868Z,14.48
2022-09-18T20:24:35.690Z,9.43
2022-09-18T20:27:03.654Z,7.47
2022-09-18T20:29:31.414Z,8.50
2022-09-18T20:31:59.245Z,9.52
2022-09-18T20:34:27.250Z,5.05
2022-09-18T20:36:55.288Z,7.85
2022-09-18T20:39:23.010Z,8.38
2022-09-18T20:41:51.406Z,6.78
2022-09-18T20:44:19.658Z,9.10
2022-09-18T20:46:47.461Z,10.32
2022-09-18T20:49:18.107Z,5.57
2022-09-18T20:51:46.106Z,4.07
2022-09-18T20:54:15.065Z,3.58
2022-09-18T20:56:44.364Z,2.95
2022-09-18T20:59:16.179Z,4.60
2022-09-18T21:01:46.195Z,2.65
2022-09-18T21:04:19.629Z,2.50
2022-09-18T21:06:55.475Z,4.15
2022-09-18T21:09:26.415Z,3.28
2022-09-18T21:11:56.920Z,3.40
2022-09-18T21:14:25.649Z,2.97
2022-09-18T21:16:53.842Z,3.47
2022-09-18T21:19:21.521Z,5.60
2022-09-18T21:21:49.582Z,3.30
2022-09-18T21:24:17.742Z,3.40
2022-09-18T21:26:48.222Z,4.93
2022-09-18T21:29:18.088Z,4.05
2022-09-18T21:31:47.633Z,3.88
2022-09-18T21:34:27.097Z,4.32
2022-09-18T21:36:57.883Z,4.30
2022-09-18T21:39:28.369Z,3.95
2022-09-18T21:42:00.912Z,3.88
2022-09-18T21:44:31.954Z,2.90
2022-09-18T21:47:05.257Z,3.65
2022-09-18T21:49:33.430Z,2.35
2022-09-18T21:52:07.230Z,2.63
2022-09-18T21:54:35.065Z,2.75
2022-09-18T21:57:03.270Z,2.08
2022-09-18T21:59:31.760Z,2.50
2022-09-18T22:02:01.074Z,4.10
2022-09-18T22:04:32.288Z,3.70
2022-09-18T22:07:01.727Z,2.88
2022-09-18T22:09:33.275Z,2.50
2022-09-18T22:12:04.244Z,2.95
2022-09-18T22:14:34.181Z,4.13
2022-09-18T22:17:06.873Z,3.83
2022-09-18T22:19:39.250Z,3.58
2022-09-18T22:22:10.076Z,2.40
2022-09-18T22:24:38.674Z,2.75
2022-09-18T22:27:08.668Z,3.80
2022-09-18T22:29:39.540Z,2.83
2022-09-18T22:32:07.798Z,2.50
2022-09-18T22:34:35.527Z,4.07
2022-09-18T22:37:03.602Z,2.65
2022-09-18T22:39:31.305Z,2.47
2022-09-18T22:41:58.941Z,3.03
2022-09-18T22:44:26.814Z,4.22
2022-09-18T22:46:57.394Z,2.97
2022-09-18T22:49:25.261Z,4.15
2022-09-18T22:51:53.010Z,4.07
2022-09-18T22:54:27.560Z,3.72
2022-09-18T22:56:56.314Z,4.65
2022-09-18T22:59:26.243Z,3.00
2022-09-18T23:02:00.913Z,3.35
2022-09-18T23:04:30.298Z,3.17
2022-09-18T23:06:59.367Z,2.70
2022-09-18T23:09:28.681Z,3.30
2022-09-18T23:11:57.280Z,3.65
2022-09-18T23:14:27.986Z,3.33
2022-09-18T23:16:57.085Z,7.93
2022-09-18T23:19:27.750Z,2.55
2022-09-18T23:21:55.862Z,3.70
2022-09-18T23:24:24.074Z,2.90
2022-09-18T23:26:53.661Z,5.00
2022-09-18T23:29:23.095Z,4.93
2022-09-18T23:31:59.121Z,2.80
2022-09-18T23:34:30.172Z,4.35
2022-09-18T23:36:58.928Z,3.33
2022-09-18T23:39:29.216Z,3.35
2022-09-18T23:41:58.951Z,3.40
2022-09-18T23:44:34.546Z,3.00
2022-09-18T23:47:02.669Z,2.08
2022-09-18T23:49:31.032Z,3.67
2022-09-18T23:51:59.809Z,3.33
2022-09-18T23:54:30.446Z,4.13
2022-09-18T23:56:58.597Z,4.05
2022-09-18T23:59:27.114Z,3.78
